Time;durP1;ratioP1;P1;durP2;ratioP2;P2;SDS_P1;SDS_P2;PMS_P1;PMS_P2;Temp;Humidity;BMP_temperature;BMP_pressure;BME280_temperature;BME280_humidity;BME280_pressure;Samples;Min_cycle;Max_cycle;Signal;HPM_P1;HPM_P2
2021/09/14 00:00:59;;;;;;;6.55;5.10;;;11.30;99.90;;;;;;6183973;23;20485;-63
2021/09/14 00:03:25;;;;;;;7.63;5.35;;;11.20;99.90;;;;;;6157415;23;20310;-63
2021/09/14 00:05:50;;;;;;;6.63;4.45;;;11.20;99.90;;;;;;6183615;23;20085;-63
2021/09/14 00:08:16;;;;;;;7.28;4.22;;;11.20;99.90;;;;;;6183616;23;20013;-63
2021/09/14 00:10:41;;;;;;;5.43;4.35;;;11.20;99.90;;;;;;6183918;23;20092;-63
2021/09/14 00:13:08;;;;;;;5.18;4.68;;;11.20;99.90;;;;;;6183845;23;20066;-63
2021/09/14 00:15:34;;;;;;;5.55;4.63;;;11.20;99.90;;;;;;6183994;23;20085;-63
2021/09/14 00:17:59;;;;;;;6.05;4.32;;;11.20;99.90;;;;;;6183815;23;20403;-63
2021/09/14 00:20:25;;;;;;;4.95;4.45;;;11.20;99.90;;;;;;6183858;23;20024;-63
2021/09/14 00:22:50;;;;;;;6.43;4.43;;;11.30;99.90;;;;;;6183807;23;20120;-64
2021/09/14 00:25:16;;;;;;;5.80;4.38;;;11.20;99.90;;;;;;6183746;23;20017;-64
2021/09/14 00:27:42;;;;;;;8.65;4.90;;;11.20;99.90;;;;;;6183831;23;20472;-64
2021/09/14 00:30:08;;;;;;;6.50;5.20;;;11.20;99.90;;;;;;6183675;23;20009;-62
2021/09/14 00:32:33;;;;;;;7.72;4.93;;;11.20;99.90;;;;;;6183836;23;20012;-62
2021/09/14 00:34:59;;;;;;;6.75;4.32;;;11.20;99.90;;;;;;6183661;23;20013;-63
2021/09/14 00:37:24;;;;;;;5.43;4.47;;;11.20;99.90;;;;;;6183426;23;20064;-63
2021/09/14 00:39:50;;;;;;;6.13;4.40;;;11.20;99.90;;;;;;6183602;23;20025;-63
2021/09/14 00:42:16;;;;;;;9.77;4.93;;;11.20;99.90;;;;;;6156608;23;20017;-63
2021/09/14 00:44:42;;;;;;;4.95;4.45;;;11.30;99.90;;;;;;6183498;23;20012;-63
2021/09/14 00:47:07;;;;;;;5.28;4.45;;;11.30;99.90;;;;;;6183245;23;20048;-63
2021/09/14 00:49:33;;;;;;;6.82;4.95;;;11.30;99.90;;;;;;6183492;23;20013;-63
2021/09/14 00:52:00;;;;;;;6.78;4.43;;;11.40;99.90;;;;;;6156309;23;20391;-68
2021/09/14 00:54:26;;;;;;;6.30;5.00;;;11.40;99.90;;;;;;6156089;23;20041;-68
2021/09/14 00:56:52;;;;;;;7.38;4.80;;;11.50;99.90;;;;;;6156887;23;20112;-68
2021/09/14 00:59:17;;;;;;;6.97;4.53;;;11.50;99.90;;;;;;6156614;23;20041;-68
2021/09/14 01:01:43;;;;;;;5.43;4.65;;;11.60;99.90;;;;;;6156721;23;20017;-68
2021/09/14 01:04:08;;;;;;;6.40;4.93;;;11.60;99.90;;;;;;6156618;23;20024;-68
2021/09/14 01:06:34;;;;;;;6.18;5.35;;;11.70;99.90;;;;;;6156729;23;20036;-68
2021/09/14 01:09:01;;;;;;;7.30;4.82;;;11.70;99.90;;;;;;6131917;23;20091;-68
2021/09/14 01:11:30;;;;;;;6.75;4.75;;;11.70;99.90;;;;;;6157035;23;20087;-69
2021/09/14 01:14:00;;;;;;;6.13;4.82;;;11.80;99.90;;;;;;6156555;23;20020;-68
2021/09/14 01:16:28;;;;;;;5.13;4.35;;;11.70;99.90;;;;;;6156613;23;20036;-68
2021/09/14 01:18:54;;;;;;;6.68;4.88;;;11.70;99.90;;;;;;6156680;23;20067;-68
2021/09/14 01:21:22;;;;;;;10.60;4.38;;;11.70;99.90;;;;;;6156471;23;20384;-68
2021/09/14 01:23:48;;;;;;;8.43;4.72;;;11.70;99.90;;;;;;6156568;23;20389;-68
2021/09/14 01:26:13;;;;;;;6.95;4.38;;;11.70;99.90;;;;;;6183210;23;20009;-69
2021/09/14 01:28:39;;;;;;;6.28;4.70;;;11.80;99.90;;;;;;6156554;23;20013;-68
2021/09/14 01:31:04;;;;;;;5.90;4.72;;;11.80;99.90;;;;;;6183043;23;20009;-68
2021/09/14 01:33:30;;;;;;;7.97;5.10;;;11.90;99.90;;;;;;6156451;23;20132;-68
2021/09/14 01:35:55;;;;;;;4.80;4.22;;;11.90;99.90;;;;;;6156597;23;20021;-68
2021/09/14 01:38:21;;;;;;;7.28;4.75;;;12.10;99.90;;;;;;6156530;23;20045;-68
2021/09/14 01:40:48;;;;;;;6.28;4.85;;;12.10;99.90;;;;;;6182740;23;20079;-68
2021/09/14 01:43:14;;;;;;;7.15;4.57;;;12.20;99.90;;;;;;6156239;23;20017;-68
2021/09/14 01:45:40;;;;;;;5.72;4.18;;;12.30;99.90;;;;;;6156128;23;20067;-68
2021/09/14 01:48:06;;;;;;;7.43;4.45;;;12.30;99.90;;;;;;6156385;23;20017;-68
2021/09/14 01:50:31;;;;;;;4.85;4.18;;;12.40;99.90;;;;;;6182637;23;20071;-69
2021/09/14 01:53:00;;;;;;;6.57;4.22;;;12.40;99.90;;;;;;6156103;23;20027;-69
2021/09/14 01:55:25;;;;;;;6.35;4.65;;;12.50;99.90;;;;;;6156031;23;20028;-68
2021/09/14 01:57:52;;;;;;;7.05;4.43;;;12.50;99.90;;;;;;6183018;23;20021;-68
2021/09/14 02:00:25;;;;;;;9.63;4.70;;;12.50;99.90;;;;;;6156019;23;20012;-68
2021/09/14 02:24:26;;;;;;;7.38;4.50;;;12.40;99.90;;;;;;6155973;23;20524;-68
2021/09/14 02:38:25;;;;;;;5.25;4.63;;;12.60;99.90;;;;;;6155903;23;20373;-68
2021/09/14 02:41:10;;;;;;;6.68;4.50;;;12.60;99.90;;;;;;6155751;23;20017;-68
2021/09/14 02:59:56;;;;;;;8.75;5.07;;;12.60;99.90;;;;;;6126230;23;20021;-68
2021/09/14 03:02:22;;;;;;;6.60;5.07;;;12.70;99.90;;;;;;6126031;23;20026;-69
2021/09/14 03:04:47;;;;;;;6.38;4.97;;;12.70;99.90;;;;;;6126316;23;20385;-68
2021/09/14 03:07:13;;;;;;;7.85;5.40;;;12.70;99.90;;;;;;6126090;23;20020;-68
2021/09/14 03:09:38;;;;;;;6.90;5.40;;;12.70;99.90;;;;;;6152376;23;20018;-69
2021/09/14 03:12:04;;;;;;;7.43;5.32;;;12.80;99.90;;;;;;6126064;23;20023;-68
2021/09/14 03:14:29;;;;;;;6.68;5.25;;;12.80;99.90;;;;;;6152435;23;20020;-68
2021/09/14 03:16:55;;;;;;;6.88;5.57;;;12.80;99.90;;;;;;6126499;23;20013;-69
2021/09/14 03:19:20;;;;;;;7.88;6.10;;;12.80;99.90;;;;;;6128191;23;20025;-69
2021/09/14 03:21:46;;;;;;;8.10;5.45;;;12.80;99.90;;;;;;6128045;23;20430;-69
2021/09/14 03:24:11;;;;;;;7.93;5.45;;;12.80;99.90;;;;;;6128106;23;20014;-69
2021/09/14 03:26:37;;;;;;;9.45;6.03;;;12.80;99.90;;;;;;6128090;23;20040;-68
2021/09/14 03:29:03;;;;;;;9.38;6.07;;;12.80;99.90;;;;;;6128238;23;20514;-68
2021/09/14 03:31:28;;;;;;;9.30;6.22;;;12.80;99.90;;;;;;6128066;23;20084;-69
2021/09/14 03:33:55;;;;;;;6.30;5.68;;;12.80;99.90;;;;;;6128233;23;20021;-68
2021/09/14 03:36:21;;;;;;;7.35;5.93;;;12.80;99.90;;;;;;6128060;23;20338;-69
2021/09/14 03:38:46;;;;;;;8.70;5.93;;;12.80;99.90;;;;;;6103708;23;20024;-68
2021/09/14 03:41:12;;;;;;;8.68;6.38;;;12.80;99.90;;;;;;6154468;23;20048;-69
2021/09/14 03:43:37;;;;;;;8.27;6.38;;;12.70;99.90;;;;;;6127936;23;20022;-69
2021/09/14 03:46:03;;;;;;;9.77;6.47;;;12.70;99.90;;;;;;6128065;23;20468;-69
2021/09/14 03:48:29;;;;;;;9.13;6.30;;;12.60;99.90;;;;;;6153984;23;20043;-69
2021/09/14 03:50:54;;;;;;;8.57;6.53;;;12.60;99.90;;;;;;6128034;23;20084;-68
2021/09/14 03:53:20;;;;;;;11.35;6.60;;;12.50;99.90;;;;;;6148972;23;20014;-68
2021/09/14 03:55:46;;;;;;;10.45;6.28;;;12.50;99.90;;;;;;6154082;23;20382;-68
2021/09/14 03:58:11;;;;;;;8.32;7.00;;;12.40;99.90;;;;;;6127834;23;20040;-68
2021/09/14 04:00:37;;;;;;;9.18;6.57;;;12.30;99.90;;;;;;6152413;23;20013;-69
2021/09/14 04:03:07;;;;;;;8.23;6.18;;;12.30;99.90;;;;;;6152239;23;20017;-69
2021/09/14 04:05:42;;;;;;;10.75;6.50;;;12.30;99.90;;;;;;6152468;23;20014;-69
2021/09/14 04:10:44;;;;;;;10.30;7.07;;;12.10;99.90;;;;;;6152725;23;20014;-69
2021/09/14 04:13:10;;;;;;;9.68;6.63;;;12.10;99.90;;;;;;6152119;23;20014;-69
2021/09/14 04:15:36;;;;;;;9.63;7.15;;;12.10;99.90;;;;;;6152459;23;20453;-69
2021/09/14 04:18:03;;;;;;;10.73;6.97;;;12.00;99.90;;;;;;6127604;23;20072;-69
2021/09/14 04:20:29;;;;;;;8.50;7.03;;;11.90;99.90;;;;;;6152216;23;20042;-69
2021/09/14 04:22:55;;;;;;;9.45;6.40;;;11.90;99.90;;;;;;6152447;23;20014;-69
2021/09/14 04:25:20;;;;;;;8.73;6.45;;;11.90;99.90;;;;;;6127610;23;20020;-69
2021/09/14 04:27:46;;;;;;;11.07;7.00;;;11.90;99.90;;;;;;6127502;23;20080;-69
2021/09/14 04:30:12;;;;;;;8.82;6.85;;;11.80;99.90;;;;;;6152124;23;20341;-69
2021/09/14 04:32:37;;;;;;;9.00;6.97;;;11.80;99.90;;;;;;6152029;23;20111;-69
2021/09/14 04:35:04;;;;;;;10.05;7.35;;;11.80;99.90;;;;;;6127509;23;20021;-68
2021/09/14 04:37:30;;;;;;;12.85;8.07;;;11.70;99.90;;;;;;6152045;23;20017;-69
2021/09/14 04:39:56;;;;;;;9.93;7.50;;;11.70;99.90;;;;;;6152070;23;20445;-68
2021/09/14 04:42:22;;;;;;;10.55;7.82;;;11.70;99.90;;;;;;6153683;23;20021;-69
2021/09/14 04:44:47;;;;;;;11.02;7.90;;;11.60;99.90;;;;;;6151963;23;20073;-69
2021/09/14 04:47:13;;;;;;;13.20;7.65;;;11.60;99.90;;;;;;6153940;23;20009;-68
2021/09/14 04:49:39;;;;;;;8.77;7.15;;;11.60;99.90;;;;;;6151755;23;20463;-68
2021/09/14 04:52:06;;;;;;;11.00;7.20;;;11.50;99.90;;;;;;6127146;23;20026;-68
2021/09/14 04:54:36;;;;;;;12.75;7.75;;;11.60;99.90;;;;;;6153438;23;20025;-68
2021/09/14 04:57:03;;;;;;;11.95;8.07;;;11.50;99.90;;;;;;6127635;23;20018;-69
2021/09/14 04:59:29;;;;;;;10.32;7.10;;;11.50;99.90;;;;;;6151839;23;20014;-69
2021/09/14 05:01:54;;;;;;;10.55;8.02;;;11.50;99.90;;;;;;6151794;23;20353;-69
2021/09/14 05:04:20;;;;;;;11.68;8.38;;;11.50;99.90;;;;;;6151660;23;20031;-68
2021/09/14 05:06:46;;;;;;;9.85;7.13;;;11.40;99.90;;;;;;6152083;23;20089;-68
2021/09/14 05:09:11;;;;;;;11.15;7.72;;;11.40;99.90;;;;;;6151304;23;20068;-69
2021/09/14 05:11:37;;;;;;;13.38;8.30;;;11.40;99.90;;;;;;6151372;23;20018;-69
2021/09/14 05:14:03;;;;;;;15.77;9.13;;;11.40;99.90;;;;;;6151069;23;20418;-69
2021/09/14 05:16:28;;;;;;;12.10;7.78;;;11.40;99.90;;;;;;6153870;23;20092;-69
2021/09/14 05:18:54;;;;;;;15.32;8.63;;;11.40;99.90;;;;;;6153463;23;20100;-69
2021/09/14 05:21:19;;;;;;;13.48;8.57;;;11.40;99.90;;;;;;6126915;23;20234;-69
2021/09/14 05:23:45;;;;;;;13.30;8.75;;;11.40;99.90;;;;;;6151756;23;20021;-68
2021/09/14 05:26:12;;;;;;;11.75;8.52;;;11.40;99.90;;;;;;6151517;23;20619;-69
2021/09/14 05:28:38;;;;;;;12.43;8.98;;;11.50;99.90;;;;;;6126842;23;20072;-68
2021/09/14 05:31:06;;;;;;;14.40;8.43;;;11.40;99.90;;;;;;6126981;23;20469;-69
2021/09/14 05:33:33;;;;;;;14.30;8.88;;;11.50;99.90;;;;;;6151210;23;20025;-69
2021/09/14 05:35:58;;;;;;;11.75;8.57;;;11.50;99.90;;;;;;6126908;23;20111;-69
2021/09/14 05:38:25;;;;;;;11.43;7.95;;;11.50;99.90;;;;;;6151536;23;20017;-69
2021/09/14 05:40:55;;;;;;;13.10;8.68;;;11.60;99.90;;;;;;6150827;23;20016;-69
2021/09/14 05:43:22;;;;;;;15.02;8.88;;;11.60;99.90;;;;;;6151345;23;20020;-69
2021/09/14 05:45:48;;;;;;;12.00;8.15;;;11.70;99.90;;;;;;6151273;23;20028;-69
2021/09/14 05:48:14;;;;;;;12.85;8.75;;;11.70;99.90;;;;;;6151248;23;20017;-69
2021/09/14 05:50:40;;;;;;;10.32;7.30;;;11.70;99.90;;;;;;6152885;23;20010;-69
2021/09/14 05:53:06;;;;;;;11.43;8.50;;;11.80;99.90;;;;;;6152842;23;20021;-69
2021/09/14 05:55:35;;;;;;;14.38;8.30;;;11.80;99.90;;;;;;6126596;23;20029;-69
2021/09/14 05:58:00;;;;;;;12.20;8.50;;;11.90;99.90;;;;;;6126518;23;20017;-69
2021/09/14 06:00:26;;;;;;;13.35;7.90;;;12.00;99.90;;;;;;6152939;23;20020;-69
2021/09/14 06:02:52;;;;;;;11.10;7.30;;;12.00;99.90;;;;;;6126399;23;20031;-68
2021/09/14 06:05:17;;;;;;;10.02;8.70;;;12.10;99.90;;;;;;6126425;23;20022;-69
2021/09/14 06:07:43;;;;;;;12.05;8.50;;;12.10;99.90;;;;;;6153008;23;20505;-69
2021/09/14 06:10:09;;;;;;;12.02;8.00;;;12.20;99.90;;;;;;6126510;23;20053;-69
2021/09/14 06:12:34;;;;;;;13.80;8.63;;;12.30;99.90;;;;;;6126459;23;20025;-69
2021/09/14 06:15:00;;;;;;;10.52;7.95;;;12.40;99.90;;;;;;6152937;23;20013;-68
2021/09/14 06:17:26;;;;;;;12.45;9.15;;;12.50;99.90;;;;;;6126928;23;20022;-69
2021/09/14 06:19:51;;;;;;;10.38;7.90;;;12.60;99.90;;;;;;6126378;23;20021;-69
2021/09/14 06:22:20;;;;;;;12.38;8.20;;;12.70;99.90;;;;;;6126315;23;20017;-69
2021/09/14 06:24:49;;;;;;;13.45;7.97;;;13.00;99.90;;;;;;6126061;23;20109;-69
2021/09/14 06:27:17;;;;;;;14.27;7.55;;;13.60;99.90;;;;;;6126447;23;20013;-69
2021/09/14 06:29:43;;;;;;;9.23;6.55;;;14.70;99.90;;;;;;6126400;23;20099;-69
2021/09/14 06:32:09;;;;;;;11.02;7.90;;;15.90;99.90;;;;;;6126528;23;20014;-69
2021/09/14 06:34:36;;;;;;;7.70;6.90;;;16.80;99.90;;;;;;6152753;23;20044;-69
2021/09/14 06:37:02;;;;;;;11.98;7.05;;;17.50;99.90;;;;;;6126450;23;20081;-68
2021/09/14 06:39:28;;;;;;;11.45;7.78;;;18.00;99.90;;;;;;6126364;23;20045;-69
2021/09/14 06:41:54;;;;;;;10.10;6.78;;;18.60;99.90;;;;;;6126525;23;20117;-69
2021/09/14 06:44:19;;;;;;;10.13;7.05;;;19.30;99.90;;;;;;6126154;23;20491;-69
2021/09/14 06:46:45;;;;;;;7.60;6.10;;;20.00;99.90;;;;;;6152448;23;20016;-68
2021/09/14 06:49:11;;;;;;;8.75;6.03;;;20.90;99.90;;;;;;6126146;23;20013;-69
2021/09/14 06:51:36;;;;;;;8.73;6.68;;;21.30;99.50;;;;;;6131180;23;20017;-69
2021/09/14 06:54:03;;;;;;;7.22;6.20;;;21.20;99.40;;;;;;6155741;23;20464;-69
2021/09/14 06:56:28;;;;;;;8.02;5.80;;;21.30;99.60;;;;;;6155598;23;20021;-69
2021/09/14 06:58:54;;;;;;;8.20;6.38;;;21.20;99.10;;;;;;6130957;23;20020;-69
2021/09/14 07:01:21;;;;;;;9.48;6.05;;;21.80;98.60;;;;;;6182167;23;20388;-69
2021/09/14 07:03:47;;;;;;;8.35;6.25;;;21.90;98.90;;;;;;6182103;23;20048;-69
2021/09/14 07:06:13;;;;;;;9.15;5.95;;;22.30;98.40;;;;;;6155562;23;20009;-69
2021/09/14 07:08:39;;;;;;;7.65;5.95;;;22.80;96.50;;;;;;6155538;23;20020;-69
2021/09/14 07:11:04;;;;;;;7.90;6.30;;;22.60;96.10;;;;;;6155629;23;20013;-68
2021/09/14 07:13:30;;;;;;;8.90;7.20;;;22.70;96.00;;;;;;6155616;23;20139;-69
2021/09/14 07:15:55;;;;;;;7.93;6.95;;;22.10;97.20;;;;;;6182239;23;20017;-69
2021/09/14 07:18:21;;;;;;;8.18;6.22;;;22.50;96.30;;;;;;6155643;23;20021;-69
2021/09/14 07:20:47;;;;;;;9.48;6.13;;;22.80;96.60;;;;;;6182003;23;20118;-69
2021/09/14 07:23:12;;;;;;;9.68;6.78;;;23.10;96.50;;;;;;6155561;23;20013;-69
2021/09/14 07:25:42;;;;;;;8.40;7.22;;;23.30;95.60;;;;;;6155492;23;20013;-68
2021/09/14 07:28:11;;;;;;;7.13;5.82;;;22.80;94.90;;;;;;6156120;23;20459;-69
2021/09/14 07:30:37;;;;;;;8.40;6.60;;;22.90;95.50;;;;;;6155308;23;20013;-68
2021/09/14 07:33:03;;;;;;;12.57;7.72;;;22.70;94.90;;;;;;6155565;23;20490;-68
2021/09/14 07:35:30;;;;;;;7.80;6.43;;;22.10;96.50;;;;;;6155539;23;20052;-68
2021/09/14 07:37:56;;;;;;;8.55;6.78;;;21.20;97.50;;;;;;6181876;23;20052;-69
2021/09/14 07:40:23;;;;;;;8.68;6.90;;;20.30;99.90;;;;;;6182224;23;20023;-69
2021/09/14 07:42:48;;;;;;;9.65;7.75;;;19.80;99.90;;;;;;6155179;23;20345;-68
2021/09/14 07:45:14;;;;;;;9.90;7.63;;;19.10;99.90;;;;;;6155634;23;20096;-69
2021/09/14 07:47:40;;;;;;;8.80;7.90;;;18.80;99.90;;;;;;6181730;23;20013;-69
2021/09/14 07:50:06;;;;;;;8.88;7.00;;;18.60;99.90;;;;;;6155537;23;20092;-69
2021/09/14 07:52:32;;;;;;;10.35;7.78;;;18.40;99.90;;;;;;6155314;23;20431;-69
2021/09/14 07:54:57;;;;;;;9.45;8.10;;;18.30;99.90;;;;;;6155468;23;20059;-69
2021/09/14 07:57:23;;;;;;;9.82;7.70;;;18.20;99.90;;;;;;6181701;23;20088;-69
2021/09/14 07:59:48;;;;;;;10.98;7.75;;;18.20;99.90;;;;;;6131014;23;20017;-69
2021/09/14 08:02:14;;;;;;;8.63;7.80;;;18.20;99.90;;;;;;6155045;23;20013;-69
2021/09/14 08:04:39;;;;;;;12.82;8.90;;;18.10;99.90;;;;;;6157116;23;20023;-69
2021/09/14 08:07:05;;;;;;;9.95;8.35;;;17.90;99.90;;;;;;6157132;23;20214;-69
2021/09/14 08:09:31;;;;;;;12.32;8.18;;;17.90;99.90;;;;;;6184317;23;20013;-69
2021/09/14 08:11:58;;;;;;;8.50;7.70;;;17.80;99.90;;;;;;6156769;23;20341;-68
2021/09/14 08:14:24;;;;;;;10.75;8.38;;;17.90;99.90;;;;;;6157067;23;20048;-69
2021/09/14 08:16:50;;;;;;;11.15;8.73;;;17.90;99.90;;;;;;6157063;23;20024;-69
2021/09/14 08:19:16;;;;;;;9.35;7.85;;;18.00;99.90;;;;;;6183848;23;20013;-69
2021/09/14 08:21:42;;;;;;;8.45;7.70;;;18.00;99.90;;;;;;6156931;23;20373;-68
2021/09/14 08:24:09;;;;;;;12.15;8.10;;;18.10;99.90;;;;;;6157106;23;20017;-68
2021/09/14 08:26:35;;;;;;;9.98;7.88;;;18.20;99.90;;;;;;6156875;23;20437;-69
2021/09/14 08:29:01;;;;;;;10.48;8.27;;;18.30;99.90;;;;;;6157176;23;20013;-69
2021/09/14 08:31:27;;;;;;;10.10;7.82;;;18.30;99.90;;;;;;6157519;23;20365;-69
2021/09/14 08:33:53;;;;;;;10.13;7.63;;;18.40;99.90;;;;;;6156717;23;20017;-69
2021/09/14 08:36:19;;;;;;;9.90;8.38;;;18.50;99.90;;;;;;6157075;23;20021;-69
2021/09/14 08:38:44;;;;;;;8.32;7.13;;;18.40;99.90;;;;;;6156802;23;20019;-68
2021/09/14 08:41:15;;;;;;;10.80;6.68;;;18.60;99.90;;;;;;6156612;23;20020;-69
2021/09/14 08:43:47;;;;;;;10.10;7.60;;;18.60;99.90;;;;;;6156844;23;20025;-69
2021/09/14 08:46:15;;;;;;;9.63;7.53;;;18.70;99.90;;;;;;6156931;23;20075;-69
2021/09/14 08:48:42;;;;;;;12.85;8.00;;;18.70;99.90;;;;;;6156741;23;20043;-69
2021/09/14 08:51:08;;;;;;;9.60;7.30;;;18.90;99.90;;;;;;6156904;23;20009;-69
2021/09/14 08:53:35;;;;;;;9.77;8.15;;;19.00;99.90;;;;;;6156554;23;20389;-68
2021/09/14 08:56:02;;;;;;;10.32;7.55;;;19.00;99.90;;;;;;6156742;23;20088;-69
2021/09/14 08:58:28;;;;;;;11.68;8.52;;;19.00;99.90;;;;;;6156743;23;20443;-69
2021/09/14 09:00:53;;;;;;;8.90;7.88;;;19.10;99.90;;;;;;6156671;23;20013;-69
2021/09/14 09:03:30;;;;;;;10.52;8.10;;;19.20;99.90;;;;;;6156661;23;20045;-69
2021/09/14 09:05:59;;;;;;;8.68;7.70;;;19.20;99.90;;;;;;6156567;23;20446;-69
2021/09/14 09:08:27;;;;;;;8.80;7.90;;;19.20;99.90;;;;;;6131897;23;20016;-69
2021/09/14 09:11:10;;;;;;;10.32;8.32;;;19.20;99.90;;;;;;6156754;23;20473;-69
2021/09/14 09:13:45;;;;;;;9.45;7.93;;;19.30;99.90;;;;;;6156369;23;20024;-69
2021/09/14 09:16:21;;;;;;;10.88;8.25;;;19.40;99.90;;;;;;6131579;23;20017;-69
2021/09/14 09:18:51;;;;;;;11.43;8.32;;;19.50;99.90;;;;;;6156458;23;20091;-69
2021/09/14 09:21:17;;;;;;;11.10;7.50;;;19.50;99.90;;;;;;6156401;23;20009;-69
2021/09/14 09:23:43;;;;;;;10.25;8.07;;;19.50;99.90;;;;;;6156473;23;20080;-69
2021/09/14 09:26:09;;;;;;;10.85;8.43;;;19.50;99.90;;;;;;6156549;23;20456;-69
2021/09/14 09:28:35;;;;;;;7.75;6.85;;;19.40;99.90;;;;;;6182900;23;20021;-69
2021/09/14 09:31:09;;;;;;;8.75;7.40;;;19.50;99.90;;;;;;6131932;23;20017;-69
2021/09/14 09:33:35;;;;;;;9.88;6.88;;;19.80;99.90;;;;;;6182742;23;20113;-68
2021/09/14 09:36:06;;;;;;;9.77;8.18;;;19.80;99.90;;;;;;6182872;23;20036;-69
2021/09/14 09:38:45;;;;;;;8.35;7.22;;;19.90;99.90;;;;;;6156314;23;20013;-69
2021/09/14 09:41:18;;;;;;;8.77;6.97;;;19.90;99.90;;;;;;6156339;23;20088;-69
2021/09/14 09:43:44;;;;;;;8.68;7.05;;;20.00;99.90;;;;;;6182937;23;20009;-68
2021/09/14 09:46:18;;;;;;;9.30;6.97;;;20.00;99.90;;;;;;6156370;23;20069;-69
2021/09/14 09:48:44;;;;;;;8.27;6.43;;;20.10;99.90;;;;;;6156041;23;20445;-68
2021/09/14 09:51:09;;;;;;;8.60;6.68;;;20.20;99.90;;;;;;6156406;23;20136;-69
2021/09/14 09:53:36;;;;;;;8.55;6.70;;;20.40;99.90;;;;;;6155898;23;20109;-69
2021/09/14 09:56:03;;;;;;;7.57;6.05;;;20.30;99.90;;;;;;6182637;23;20040;-69
2021/09/14 09:58:28;;;;;;;7.28;6.57;;;20.30;99.90;;;;;;6131298;23;20013;-69
2021/09/14 10:00:59;;;;;;;9.20;6.65;;;20.30;99.90;;;;;;6131841;23;20067;-69
2021/09/14 10:03:29;;;;;;;8.75;6.40;;;20.40;99.90;;;;;;6156073;23;20053;-69
2021/09/14 10:05:58;;;;;;;7.13;6.43;;;20.40;99.90;;;;;;6182902;23;20075;-69
2021/09/14 10:08:26;;;;;;;7.57;6.75;;;20.40;99.90;;;;;;6131369;23;20481;-69
2021/09/14 10:10:57;;;;;;;8.50;6.85;;;20.50;99.90;;;;;;6156067;23;20325;-69
2021/09/14 10:13:34;;;;;;;8.13;6.38;;;20.40;99.90;;;;;;6155884;23;20021;-69
2021/09/14 10:16:00;;;;;;;7.40;5.80;;;20.40;99.90;;;;;;6156113;23;20016;-69
2021/09/14 10:18:29;;;;;;;7.45;6.03;;;20.40;99.90;;;;;;6155954;23;20096;-68
2021/09/14 10:20:55;;;;;;;9.38;6.28;;;20.50;99.90;;;;;;6156036;23;20013;-68
2021/09/14 10:23:34;;;;;;;8.48;6.22;;;20.60;99.90;;;;;;6156223;23;20013;-69
2021/09/14 10:26:09;;;;;;;7.25;5.93;;;20.70;99.90;;;;;;6156418;23;20023;-68
2021/09/14 10:28:44;;;;;;;7.43;6.05;;;20.80;99.90;;;;;;6155917;23;20096;-69
2021/09/14 10:31:20;;;;;;;9.50;6.65;;;21.00;99.90;;;;;;6155838;23;20009;-68
2021/09/14 10:33:46;;;;;;;9.10;6.50;;;21.00;99.90;;;;;;6182643;23;20258;-69
2021/09/14 10:36:13;;;;;;;7.38;5.75;;;21.30;99.90;;;;;;6155535;23;20013;-70
2021/09/14 10:38:48;;;;;;;7.15;5.70;;;21.40;99.90;;;;;;6156010;23;20015;-70
2021/09/14 10:41:15;;;;;;;7.55;5.82;;;21.60;99.90;;;;;;6182138;23;20459;-70
2021/09/14 10:43:53;;;;;;;11.18;5.97;;;21.70;99.90;;;;;;6155762;23;20059;-70
2021/09/14 10:46:23;;;;;;;6.25;5.63;;;22.00;99.90;;;;;;6182603;23;20005;-70
2021/09/14 10:48:52;;;;;;;6.60;5.82;;;22.10;99.90;;;;;;6182636;23;20028;-70
2021/09/14 10:51:19;;;;;;;7.22;6.00;;;22.20;99.90;;;;;;6181231;23;20013;-70
2021/09/14 10:53:56;;;;;;;7.15;5.80;;;22.20;99.90;;;;;;6126173;23;20080;-70
2021/09/14 10:56:22;;;;;;;6.78;5.50;;;22.20;99.90;;;;;;6152336;23;20092;-70
2021/09/14 10:58:47;;;;;;;6.72;5.63;;;22.20;99.90;;;;;;6152772;23;20084;-70
2021/09/14 11:01:25;;;;;;;6.00;5.40;;;22.10;99.90;;;;;;6126066;23;20433;-70
2021/09/14 11:04:10;;;;;;;8.60;6.10;;;22.20;99.90;;;;;;6152735;23;20056;-70
2021/09/14 11:06:37;;;;;;;6.57;5.70;;;22.00;99.90;;;;;;6125634;23;20025;-70
2021/09/14 11:09:06;;;;;;;6.43;5.82;;;21.90;99.90;;;;;;6152703;23;20009;-70
2021/09/14 11:11:33;;;;;;;6.13;5.53;;;22.00;99.90;;;;;;6152551;23;20018;-70
2021/09/14 11:13:58;;;;;;;7.63;6.43;;;22.20;99.90;;;;;;6152638;23;20024;-70
2021/09/14 11:16:24;;;;;;;6.88;6.28;;;22.00;99.90;;;;;;6126246;23;20092;-70
2021/09/14 11:18:50;;;;;;;7.57;6.13;;;22.20;99.90;;;;;;6152313;23;20017;-70
2021/09/14 11:21:18;;;;;;;7.57;5.60;;;22.10;99.90;;;;;;6152434;23;20025;-70
2021/09/14 11:23:48;;;;;;;7.13;6.10;;;22.20;99.90;;;;;;6126178;23;20489;-71
2021/09/14 11:26:17;;;;;;;6.85;6.13;;;22.10;99.90;;;;;;6126092;23;20005;-70
2021/09/14 11:29:00;;;;;;;7.60;6.10;;;22.20;99.90;;;;;;6152484;23;20009;-70
2021/09/14 11:31:27;;;;;;;7.53;6.80;;;22.30;99.90;;;;;;6126187;23;20013;-70
2021/09/14 11:33:53;;;;;;;8.18;6.82;;;22.40;99.80;;;;;;6125939;23;20071;-71
2021/09/14 11:36:19;;;;;;;6.07;5.43;;;22.30;99.90;;;;;;6152451;23;20037;-71
2021/09/14 11:38:44;;;;;;;8.07;5.57;;;22.30;99.90;;;;;;6153628;23;20010;-70
2021/09/14 11:41:12;;;;;;;8.07;5.93;;;22.40;99.90;;;;;;6154075;23;20017;-70
2021/09/14 11:43:43;;;;;;;8.38;4.93;;;22.50;99.90;;;;;;6127984;23;20017;-70
2021/09/14 11:46:19;;;;;;;6.05;5.03;;;22.50;99.90;;;;;;6128302;23;20024;-70
2021/09/14 11:48:56;;;;;;;6.55;5.95;;;22.70;99.90;;;;;;6154945;23;20010;-70
2021/09/14 11:51:22;;;;;;;8.13;6.47;;;22.60;99.80;;;;;;6129690;23;20021;-70
2021/09/14 11:53:50;;;;;;;7.50;6.32;;;22.60;99.50;;;;;;6157341;23;20021;-70
2021/09/14 11:56:18;;;;;;;8.35;6.75;;;22.60;98.70;;;;;;6157597;23;20021;-70
2021/09/14 11:58:46;;;;;;;6.53;5.72;;;22.60;99.80;;;;;;6157212;23;20024;-70
2021/09/14 12:01:13;;;;;;;7.90;6.28;;;22.70;99.40;;;;;;6183505;23;20458;-69
2021/09/14 12:03:51;;;;;;;7.40;6.70;;;22.70;99.20;;;;;;6183982;23;20013;-70
2021/09/14 12:06:27;;;;;;;7.55;6.30;;;22.80;98.50;;;;;;6183696;23;20464;-70
2021/09/14 12:08:57;;;;;;;6.70;5.88;;;22.80;99.00;;;;;;6183626;23;20017;-70
2021/09/14 12:11:31;;;;;;;8.13;6.45;;;22.70;98.80;;;;;;6132505;23;20013;-70
2021/09/14 12:14:01;;;;;;;8.27;6.97;;;22.70;99.50;;;;;;6157277;23;20027;-70
2021/09/14 12:16:28;;;;;;;7.00;6.30;;;22.70;99.20;;;;;;6183862;23;20016;-70
2021/09/14 12:18:57;;;;;;;16.38;7.75;;;22.70;99.70;;;;;;6183867;23;20005;-70
2021/09/14 12:21:24;;;;;;;10.35;6.60;;;22.70;99.00;;;;;;6183570;23;20083;-70
2021/09/14 12:23:50;;;;;;;7.22;6.07;;;22.60;99.40;;;;;;6157189;23;20028;-70
2021/09/14 12:26:17;;;;;;;8.05;7.25;;;22.70;99.90;;;;;;6183659;23;20009;-70
2021/09/14 12:28:42;;;;;;;8.43;7.13;;;22.80;99.40;;;;;;6183789;23;20017;-70
2021/09/14 12:31:08;;;;;;;8.00;7.20;;;22.80;98.90;;;;;;6157047;23;20024;-71
2021/09/14 12:33:34;;;;;;;7.72;6.93;;;22.60;99.20;;;;;;6183877;23;20089;-70
2021/09/14 12:36:00;;;;;;;8.52;7.60;;;22.70;99.70;;;;;;6156897;23;20048;-70
2021/09/14 12:38:26;;;;;;;8.00;6.82;;;22.80;99.90;;;;;;6157021;23;20326;-70
2021/09/14 12:40:51;;;;;;;9.93;8.05;;;23.00;99.00;;;;;;6157095;23;20471;-70
2021/09/14 12:43:17;;;;;;;8.00;7.30;;;22.80;98.50;;;;;;6156781;23;20087;-70
2021/09/14 12:45:42;;;;;;;8.50;7.13;;;22.90;99.60;;;;;;6156905;23;20012;-70
2021/09/14 12:48:08;;;;;;;8.25;7.45;;;23.00;98.60;;;;;;6156782;23;20020;-71
2021/09/14 12:50:34;;;;;;;8.70;7.75;;;22.90;99.50;;;;;;6183338;23;20040;-70
2021/09/14 12:53:03;;;;;;;8.60;7.55;;;23.00;99.80;;;;;;6156447;23;20049;-71
2021/09/14 12:55:30;;;;;;;7.88;7.18;;;23.10;99.50;;;;;;6156889;23;20017;-71
2021/09/14 12:57:56;;;;;;;8.25;7.40;;;23.00;99.80;;;;;;6156617;23;20321;-71
2021/09/14 13:00:21;;;;;;;9.70;8.27;;;23.00;99.70;;;;;;6156721;23;20071;-71
2021/09/14 13:02:47;;;;;;;7.40;6.70;;;23.10;99.40;;;;;;6183354;23;20028;-76
2021/09/14 13:05:12;;;;;;;7.63;6.93;;;23.20;99.50;;;;;;6156690;23;20013;-75
2021/09/14 13:07:38;;;;;;;7.85;7.15;;;23.30;99.40;;;;;;6183523;23;20025;-74
2021/09/14 13:10:05;;;;;;;8.50;7.70;;;23.30;99.60;;;;;;6132101;23;20020;-74
2021/09/14 13:12:32;;;;;;;8.30;7.13;;;23.20;98.90;;;;;;6156665;23;20111;-75
2021/09/14 13:17:42;;;;;;;7.70;7.00;;;23.20;98.20;;;;;;6156492;23;20107;-74
2021/09/14 13:20:09;;;;;;;7.90;7.20;;;23.30;98.60;;;;;;6156624;23;20040;-75
2021/09/14 13:22:35;;;;;;;9.68;8.05;;;23.30;99.10;;;;;;6156476;23;20696;-75
2021/09/14 13:25:01;;;;;;;9.30;7.38;;;23.30;98.80;;;;;;6156502;23;20013;-74
2021/09/14 13:27:27;;;;;;;9.98;8.23;;;23.40;98.70;;;;;;6156309;23;20356;-75
2021/09/14 13:29:53;;;;;;;9.18;8.25;;;23.50;98.60;;;;;;6156411;23;20100;-74
2021/09/14 13:32:18;;;;;;;9.18;8.27;;;23.50;98.50;;;;;;6156282;23;20055;-75
2021/09/14 13:34:45;;;;;;;8.50;7.70;;;23.40;98.30;;;;;;6131810;23;20024;-75
2021/09/14 13:37:10;;;;;;;7.95;7.07;;;23.60;98.90;;;;;;6156733;23;20020;-75